< < Back
Terminal Aerodrome Forecast


Current Version              Previous Versions:   1  2  3  4  5  6  7  8  9  

Terminal Aerodrome Forecast

445
FTUS42 KGSP 231100
TAFHKY
TAF
KHKY 231127Z 2312/2412 31004KT P6SM VCSH SCT100 BKN250
     FM231800 00000KT P6SM VCTS BKN045CB
     FM232100 00000KT P6SM BKN050 PROB30 2321/2403 4SM TSRA BKN040CB
     FM240500 05005KT P6SM VCSH BKN014
     FM240800 06005KT 5SM BR BKN009=

Latest METAR

172
SAUS70 KWBC 231700 RRA
MTRHKY
METAR KHKY 231653Z 05004KT 10SM -RA OVC080 29/22 A3001 RMK AO2 SLP137
P0000 T02890217


USA.gov is the U.S. government's official web portal to all federal, state and local government web resources and services.